Time;durP1;ratioP1;P1;durP2;ratioP2;P2;SDS_P1;SDS_P2;PMS_P1;PMS_P2;Temp;Humidity;BMP_temperature;BMP_pressure;BME280_temperature;BME280_humidity;BME280_pressure;Samples;Min_cycle;Max_cycle;Signal;HPM_P1;HPM_P2
2021/09/23 00:00:06;;;;;;;5.40;1.20;;;;;;;23.02;43.15;101085.38;4454507;32;20131;-68
2021/09/23 00:03:09;;;;;;;6.03;1.27;;;;;;;23.11;43.15;101081.47;4440335;32;20080;-68
2021/09/23 00:05:22;;;;;;;5.80;1.20;;;;;;;23.26;42.69;101082.06;4451608;32;20496;-68
2021/09/23 00:07:50;;;;;;;7.15;1.60;;;;;;;23.08;43.11;101085.38;4456136;32;20434;-68
2021/09/23 00:10:21;;;;;;;4.40;1.12;;;;;;;23.05;43.13;101080.66;4455530;32;20043;-68
2021/09/23 00:12:48;;;;;;;7.40;1.10;;;;;;;22.98;43.50;101070.47;4454344;32;20433;-68
2021/09/23 00:15:15;;;;;;;1.87;0.90;;;;;;;23.13;43.08;101056.69;4453907;32;20524;-68
2021/09/23 00:17:48;;;;;;;4.70;1.35;;;;;;;23.15;43.14;101064.78;4453444;32;20421;-68
2021/09/23 00:20:16;;;;;;;5.25;0.98;;;;;;;23.04;43.45;101059.03;4452305;32;20537;-68
2021/09/23 00:22:42;;;;;;;2.47;0.95;;;;;;;23.27;42.99;101070.06;4453291;32;20073;-68
2021/09/23 00:25:09;;;;;;;4.43;1.02;;;;;;;23.28;42.83;101059.34;4455279;32;20076;-68
2021/09/23 00:27:35;;;;;;;2.60;1.05;;;;;;;23.39;42.65;101068.00;4452923;32;20129;-68
2021/09/23 00:30:01;;;;;;;5.15;1.02;;;;;;;23.53;42.09;101070.63;4455756;32;20077;-68
2021/09/23 00:32:26;;;;;;;4.00;1.02;;;;;;;23.57;42.12;101061.75;4452099;32;20077;-68
2021/09/23 00:34:52;;;;;;;4.35;1.33;;;;;;;23.66;41.64;101072.22;4443270;32;20033;-68
2021/09/23 00:37:18;;;;;;;4.80;1.25;;;;;;;23.67;41.97;101059.41;4445971;32;20153;-68
2021/09/23 00:39:45;;;;;;;5.40;1.12;;;;;;;23.25;42.79;101054.63;4446940;32;20048;-68
2021/09/23 00:42:10;;;;;;;3.90;1.10;;;;;;;23.23;43.07;101048.62;4444181;32;20437;-69
2021/09/23 00:44:38;;;;;;;5.15;1.40;;;;;;;23.03;43.61;101048.81;4444412;32;20099;-68
2021/09/23 00:47:04;;;;;;;6.10;1.35;;;;;;;23.20;43.21;101046.78;4444723;32;20069;-69
2021/09/23 00:49:30;;;;;;;5.03;1.33;;;;;;;23.00;43.71;101044.91;4444170;32;20116;-68
2021/09/23 00:51:55;;;;;;;4.72;1.25;;;;;;;23.18;43.41;101052.25;4442504;32;20398;-69
2021/09/23 00:54:21;;;;;;;11.27;1.58;;;;;;;22.94;44.00;101064.19;4444149;32;20060;-68
2021/09/23 00:56:47;;;;;;;5.22;1.37;;;;;;;23.23;43.46;101055.16;4447195;32;20085;-68
2021/09/23 00:59:12;;;;;;;6.50;1.45;;;;;;;22.96;44.00;101055.88;4447269;32;20085;-68
2021/09/23 01:01:45;;;;;;;7.90;1.50;;;;;;;22.82;44.21;101056.84;4446256;32;20541;-68
2021/09/23 01:04:12;;;;;;;9.88;1.23;;;;;;;22.80;44.47;101064.41;4442654;32;20754;-68
2021/09/23 01:06:38;;;;;;;6.37;1.30;;;;;;;22.78;44.66;101061.25;4449406;32;20072;-68
2021/09/23 01:09:03;;;;;;;5.35;1.17;;;;;;;22.79;44.38;101045.59;4446269;32;20067;-68
2021/09/23 01:11:29;;;;;;;7.30;1.10;;;;;;;22.65;44.95;101040.84;4442955;32;20076;-69
2021/09/23 01:13:55;;;;;;;4.65;1.27;;;;;;;22.57;45.11;101048.38;4441074;32;20197;-68
2021/09/23 01:16:22;;;;;;;4.78;1.25;;;;;;;22.67;44.93;101049.75;4429790;32;20080;-68
2021/09/23 01:18:47;;;;;;;4.07;1.12;;;;;;;22.48;45.34;101042.81;4444402;32;20211;-68
2021/09/23 01:21:14;;;;;;;7.85;1.52;;;;;;;22.37;45.38;101049.28;4437992;32;20084;-68
2021/09/23 01:23:42;;;;;;;5.07;1.60;;;;;;;22.73;44.81;101042.72;4442875;32;20101;-68
2021/09/23 01:26:11;;;;;;;3.87;1.20;;;;;;;22.96;44.50;101037.84;4428417;32;20098;-68
2021/09/23 01:28:39;;;;;;;4.65;1.30;;;;;;;23.07;44.32;101037.88;4445097;32;20379;-68
2021/09/23 01:31:05;;;;;;;7.97;1.40;;;;;;;23.26;44.03;101027.50;4440163;32;20551;-68
2021/09/23 01:33:31;;;;;;;9.88;1.62;;;;;;;23.12;44.08;101029.28;4441883;32;20037;-68
2021/09/23 01:35:59;;;;;;;6.25;1.42;;;;;;;23.21;43.78;101023.28;4441812;32;20122;-68
2021/09/23 01:38:27;;;;;;;7.45;1.40;;;;;;;23.28;43.85;101017.06;4446499;32;20061;-68
2021/09/23 01:40:53;;;;;;;5.25;1.30;;;;;;;23.39;43.78;101001.94;4443037;32;20125;-68
2021/09/23 01:43:20;;;;;;;4.25;1.10;;;;;;;23.28;44.14;101007.66;4443343;32;20072;-68
2021/09/23 01:45:46;;;;;;;10.43;1.50;;;;;;;23.23;44.34;101006.34;4437950;32;20029;-68
2021/09/23 01:48:12;;;;;;;2.00;1.27;;;;;;;23.12;44.66;101014.13;4442184;32;20073;-68
2021/09/23 01:50:37;;;;;;;5.15;1.62;;;;;;;23.00;44.79;101006.78;4444082;32;20128;-68
2021/09/23 01:53:03;;;;;;;4.10;1.20;;;;;;;23.09;44.70;100995.06;4440557;32;20033;-68
2021/09/23 01:55:29;;;;;;;6.25;1.95;;;;;;;23.09;44.77;100983.59;4441422;32;20069;-68
2021/09/23 01:57:54;;;;;;;2.72;1.20;;;;;;;23.05;45.09;100980.19;4442623;32;20405;-68
2021/09/23 02:00:20;;;;;;;8.48;1.75;;;;;;;23.02;45.23;100986.97;4442579;32;20081;-68
2021/09/23 02:02:46;;;;;;;5.37;1.45;;;;;;;23.06;45.25;100981.75;4443770;32;20091;-69
2021/09/23 02:05:12;;;;;;;4.97;1.48;;;;;;;23.12;44.96;100976.81;4445200;32;20461;-69
2021/09/23 02:07:38;;;;;;;4.68;0.88;;;;;;;23.30;44.52;100968.50;4444113;32;20080;-69
2021/09/23 02:10:05;;;;;;;3.65;1.00;;;;;;;23.57;43.90;100966.16;4440808;32;20068;-69
2021/09/23 02:12:30;;;;;;;6.37;1.17;;;;;;;23.70;43.75;100958.56;4441166;32;20094;-69
2021/09/23 02:14:56;;;;;;;6.05;1.20;;;;;;;23.66;43.89;100969.56;4442409;32;20046;-69
2021/09/23 02:17:21;;;;;;;4.50;1.12;;;;;;;23.82;43.39;100960.13;4445205;32;20033;-69
2021/09/23 02:19:47;;;;;;;6.75;1.30;;;;;;;23.63;43.82;100967.72;4440068;32;20077;-69
2021/09/23 02:22:13;;;;;;;4.30;1.12;;;;;;;23.91;43.41;100973.41;4444761;32;20053;-69
2021/09/23 02:24:39;;;;;;;6.03;1.58;;;;;;;23.72;43.70;100955.97;4442531;32;20060;-69
2021/09/23 02:27:05;;;;;;;7.78;1.45;;;;;;;23.93;43.32;100962.94;4443017;32;20073;-69
2021/09/23 02:29:31;;;;;;;6.22;1.40;;;;;;;23.97;43.03;100963.50;4443300;32;20539;-69
2021/09/23 02:31:57;;;;;;;11.32;2.10;;;;;;;23.92;43.56;100963.47;4443773;32;20085;-69
2021/09/23 02:34:22;;;;;;;6.25;1.77;;;;;;;23.51;44.35;100946.06;4442605;32;20026;-69
2021/09/23 02:36:48;;;;;;;8.93;1.67;;;;;;;23.79;43.77;100941.03;4439743;32;20326;-68
2021/09/23 02:39:14;;;;;;;5.90;1.23;;;;;;;23.80;43.89;100941.84;4440108;32;20389;-69
2021/09/23 02:41:40;;;;;;;5.00;1.33;;;;;;;23.74;43.85;100936.09;4436180;32;20083;-69
2021/09/23 02:44:05;;;;;;;5.53;1.40;;;;;;;23.68;44.24;100929.56;4398497;32;20045;-68
2021/09/23 02:46:32;;;;;;;8.05;1.30;;;;;;;23.83;43.97;100927.19;4439967;32;20442;-68
2021/09/23 02:48:58;;;;;;;6.07;1.27;;;;;;;23.92;43.90;100938.41;4439974;32;20421;-68
2021/09/23 02:51:24;;;;;;;5.37;1.30;;;;;;;23.70;44.55;100934.78;4438245;32;20482;-68
2021/09/23 02:53:49;;;;;;;7.03;1.50;;;;;;;23.75;44.26;100928.25;4445321;32;20086;-68
2021/09/23 02:56:16;;;;;;;3.17;1.20;;;;;;;23.65;45.17;100938.47;4439587;32;20025;-68
2021/09/23 02:58:43;;;;;;;5.57;1.40;;;;;;;24.07;44.12;100932.37;4446235;32;20052;-68
2021/09/23 03:01:08;;;;;;;5.57;1.35;;;;;;;24.01;44.54;100923.78;4440834;32;20041;-68
2021/09/23 03:03:35;;;;;;;9.18;2.30;;;;;;;23.83;45.12;100926.41;4438098;32;20137;-69
2021/09/23 03:06:00;;;;;;;7.15;1.55;;;;;;;23.91;45.22;100924.56;4439028;32;20125;-69
2021/09/23 03:08:26;;;;;;;5.60;1.33;;;;;;;24.02;45.28;100922.44;4440892;32;20059;-69
2021/09/23 03:10:51;;;;;;;8.30;1.50;;;;;;;23.83;46.07;100918.56;4444082;32;20120;-69
2021/09/23 03:13:17;;;;;;;10.02;1.70;;;;;;;23.57;47.06;100906.59;4443344;32;20069;-68
2021/09/23 03:15:43;;;;;;;6.45;1.30;;;;;;;23.45;47.56;100900.09;4441963;32;20493;-68
2021/09/23 03:18:08;;;;;;;3.97;1.67;;;;;;;23.49;48.02;100899.81;4442731;32;20091;-68
2021/09/23 03:20:34;;;;;;;8.02;2.08;;;;;;;23.56;48.10;100910.75;4444443;32;20076;-68
2021/09/23 03:23:00;;;;;;;6.07;1.70;;;;;;;23.46;48.47;100903.75;4442902;32;20214;-68
2021/09/23 03:25:30;;;;;;;10.30;1.90;;;;;;;23.30;49.02;100896.72;4442780;32;20065;-68
2021/09/23 03:27:56;;;;;;;4.70;1.70;;;;;;;23.56;48.58;100898.50;4447380;32;20076;-68
2021/09/23 03:30:22;;;;;;;7.47;1.95;;;;;;;23.25;49.44;100888.88;4438632;32;20082;-68
2021/09/23 03:32:48;;;;;;;11.18;2.42;;;;;;;23.13;49.83;100897.97;4439892;32;21535;-68
2021/09/23 03:35:14;;;;;;;17.05;2.62;;;;;;;22.96;50.30;100897.19;4439397;32;20088;-68
2021/09/23 03:37:39;;;;;;;5.57;1.90;;;;;;;22.99;50.16;100896.16;4439729;32;20239;-68
2021/09/23 03:40:07;;;;;;;6.95;2.40;;;;;;;22.80;50.71;100889.34;4444026;32;20960;-68
2021/09/23 03:42:32;;;;;;;13.43;3.22;;;;;;;23.02;50.32;100889.38;4438506;32;20049;-68
2021/09/23 03:44:58;;;;;;;11.60;2.72;;;;;;;22.77;50.85;100881.78;4445860;32;20445;-68
2021/09/23 03:47:24;;;;;;;9.75;2.40;;;;;;;23.02;50.43;100875.03;4439894;32;20099;-68
2021/09/23 03:49:50;;;;;;;9.30;2.67;;;;;;;22.80;51.08;100880.75;4442121;32;20067;-68
2021/09/23 03:52:16;;;;;;;5.25;2.20;;;;;;;22.87;50.87;100875.28;4441463;32;20144;-68
2021/09/23 03:54:42;;;;;;;6.32;2.17;;;;;;;22.86;50.81;100872.94;4439917;32;20077;-68
2021/09/23 03:57:07;;;;;;;7.30;2.20;;;;;;;22.78;51.16;100866.91;4442953;32;20425;-68
2021/09/23 03:59:33;;;;;;;9.88;2.15;;;;;;;22.77;51.23;100851.00;4441858;32;20072;-68
2021/09/23 04:02:00;;;;;;;9.48;2.53;;;;;;;22.98;50.63;100840.06;4441663;32;20049;-68
2021/09/23 04:04:25;;;;;;;5.47;2.40;;;;;;;22.81;51.11;100848.66;4443829;32;20473;-68
2021/09/23 04:06:51;;;;;;;6.62;2.58;;;;;;;22.88;51.22;100847.34;4441420;32;20069;-68
2021/09/23 04:09:17;;;;;;;11.98;2.42;;;;;;;23.11;50.62;100843.94;4440948;32;20036;-68
2021/09/23 04:11:42;;;;;;;9.93;2.65;;;;;;;23.08;50.67;100842.16;4443946;32;20100;-68
2021/09/23 04:14:08;;;;;;;8.60;2.10;;;;;;;23.37;50.15;100858.06;4446780;32;20088;-68
2021/09/23 04:16:34;;;;;;;9.27;2.53;;;;;;;23.42;49.79;100852.31;4444002;32;20097;-68
2021/09/23 04:19:00;;;;;;;8.48;2.80;;;;;;;23.89;48.95;100844.59;4443588;32;20036;-68
2021/09/23 04:21:26;;;;;;;6.45;2.30;;;;;;;23.81;48.83;100843.59;4449116;32;20497;-68
2021/09/23 04:23:52;;;;;;;9.30;2.80;;;;;;;23.80;48.97;100835.50;4444750;32;20041;-68
2021/09/23 04:26:18;;;;;;;11.35;2.58;;;;;;;23.96;48.49;100831.81;4443003;32;20563;-68
2021/09/23 04:28:44;;;;;;;14.93;2.87;;;;;;;24.06;48.65;100825.22;4444074;32;20097;-68
2021/09/23 04:31:10;;;;;;;8.13;3.00;;;;;;;24.01;48.66;100820.25;4440688;32;20536;-68
2021/09/23 04:33:36;;;;;;;9.18;2.80;;;;;;;24.05;48.55;100817.88;4429026;32;20139;-68
2021/09/23 04:36:02;;;;;;;6.05;3.08;;;;;;;24.12;48.32;100817.34;4441744;32;20485;-68
2021/09/23 04:38:27;;;;;;;5.12;2.85;;;;;;;23.87;48.61;100815.59;4445498;32;20025;-69
2021/09/23 04:40:53;;;;;;;8.35;3.05;;;;;;;23.85;48.90;100815.34;4442977;32;21178;-69
2021/09/23 04:43:20;;;;;;;13.20;3.87;;;;;;;23.82;49.18;100816.41;4444549;32;20095;-69
2021/09/23 04:45:47;;;;;;;8.00;3.40;;;;;;;23.47;50.25;100811.28;4448322;32;20045;-69
2021/09/23 04:48:13;;;;;;;10.55;4.53;;;;;;;23.67;49.94;100800.78;4448330;32;20108;-69
2021/09/23 04:50:40;;;;;;;9.75;5.00;;;;;;;23.48;50.71;100792.72;4447923;32;20513;-69
2021/09/23 04:53:06;;;;;;;10.85;4.90;;;;;;;23.72;50.21;100786.41;4442143;32;20045;-69
2021/09/23 04:55:32;;;;;;;7.90;4.57;;;;;;;23.57;50.43;100791.69;4444789;32;20100;-69
2021/09/23 04:58:00;;;;;;;10.07;4.57;;;;;;;23.57;50.62;100785.94;4444698;32;20129;-69
2021/09/23 05:00:26;;;;;;;9.75;4.95;;;;;;;23.64;50.65;100776.75;4445402;32;20033;-69
2021/09/23 05:02:52;;;;;;;8.82;4.50;;;;;;;23.75;50.46;100779.59;4438568;32;20071;-69
2021/09/23 05:05:18;;;;;;;9.45;4.35;;;;;;;23.82;50.12;100793.41;4447567;32;20037;-69
2021/09/23 05:07:44;;;;;;;9.80;4.50;;;;;;;23.91;49.73;100790.25;4444717;32;20315;-69
2021/09/23 05:10:10;;;;;;;9.75;4.22;;;;;;;23.89;49.90;100792.84;4439794;32;20136;-69
2021/09/23 05:12:35;;;;;;;10.13;4.65;;;;;;;24.12;49.46;100787.81;4442198;32;20036;-69
2021/09/23 05:15:02;;;;;;;8.43;3.97;;;;;;;24.16;49.38;100782.53;4446957;32;20473;-69
2021/09/23 05:17:27;;;;;;;8.02;3.97;;;;;;;24.19;49.24;100779.41;4444368;32;20095;-69
2021/09/23 05:19:53;;;;;;;8.15;4.35;;;;;;;24.35;48.89;100783.47;4442887;32;20637;-69
2021/09/23 05:22:22;;;;;;;9.35;4.28;;;;;;;24.55;48.42;100788.81;4443987;32;20108;-68
2021/09/23 05:24:51;;;;;;;9.65;3.53;;;;;;;24.77;48.05;100791.56;4446235;32;20089;-68
2021/09/23 05:27:18;;;;;;;7.62;3.30;;;;;;;24.92;47.93;100789.06;4446448;32;20086;-69
2021/09/23 05:29:44;;;;;;;5.25;3.15;;;;;;;24.95;47.78;100780.13;4442023;32;20045;-69
2021/09/23 05:32:09;;;;;;;10.35;2.60;;;;;;;24.88;47.91;100779.97;4441214;32;20073;-69
2021/09/23 05:34:35;;;;;;;5.55;2.30;;;;;;;25.03;47.56;100781.09;4445214;32;20469;-69
2021/09/23 05:37:01;;;;;;;6.60;2.72;;;;;;;25.21;47.15;100774.62;4446763;32;20076;-69
2021/09/23 05:39:26;;;;;;;6.40;2.17;;;;;;;24.68;48.21;100784.03;4437830;32;20069;-68
2021/09/23 05:41:52;;;;;;;7.10;2.10;;;;;;;24.54;48.64;100776.53;4446048;32;20107;-68
2021/09/23 05:44:23;;;;;;;5.05;2.58;;;;;;;24.96;47.70;100775.16;4443916;32;20092;-69
2021/09/23 05:46:51;;;;;;;8.25;2.42;;;;;;;25.14;47.38;100783.88;4444331;32;20080;-69
2021/09/23 05:49:17;;;;;;;9.18;2.90;;;;;;;25.43;46.85;100781.50;4439708;32;20081;-69
2021/09/23 05:51:42;;;;;;;7.60;4.03;;;;;;;25.28;47.03;100768.28;4443800;32;20090;-69
2021/09/23 05:54:08;;;;;;;8.82;2.33;;;;;;;25.04;47.73;100762.50;4447384;32;20091;-69
2021/09/23 05:56:34;;;;;;;3.92;2.35;;;;;;;24.93;47.92;100761.84;4449628;32;20080;-69
2021/09/23 05:59:00;;;;;;;10.38;2.42;;;;;;;25.06;47.37;100768.50;4447010;32;20668;-69
2021/09/23 06:01:26;;;;;;;8.95;3.45;;;;;;;25.00;47.45;100767.00;4445506;32;20494;-69
2021/09/23 06:03:51;;;;;;;11.55;5.07;;;;;;;24.82;48.02;100759.84;4439758;32;20038;-69
2021/09/23 06:06:17;;;;;;;6.65;3.37;;;;;;;24.75;48.04;100760.44;4430036;32;20055;-69
2021/09/23 06:08:45;;;;;;;8.23;2.72;;;;;;;25.13;47.60;100772.91;4442489;32;20077;-69
2021/09/23 06:11:11;;;;;;;5.32;3.53;;;;;;;25.29;47.05;100783.47;4440552;32;20313;-69
2021/09/23 06:13:37;;;;;;;7.80;3.67;;;;;;;25.22;47.13;100790.59;4444196;32;20085;-69
2021/09/23 06:16:03;;;;;;;9.52;5.32;;;;;;;25.29;46.94;100775.63;4443041;32;20181;-69
2021/09/23 06:18:29;;;;;;;8.95;5.75;;;;;;;25.57;46.12;100792.59;4440511;32;20063;-69
2021/09/23 06:20:54;;;;;;;13.18;6.97;;;;;;;25.83;45.69;100792.81;4440928;32;20489;-69
2021/09/23 06:23:20;;;;;;;8.73;7.28;;;;;;;25.84;45.50;100788.63;4439045;32;20126;-69
2021/09/23 06:25:46;;;;;;;10.65;8.75;;;;;;;25.67;45.80;100793.03;4444131;32;20029;-69
2021/09/23 06:28:11;;;;;;;9.43;7.53;;;;;;;25.77;45.37;100797.84;4428172;32;20042;-69
2021/09/23 06:30:38;;;;;;;10.25;7.25;;;;;;;25.91;45.06;100793.75;4443088;32;20044;-69
2021/09/23 06:33:04;;;;;;;8.63;7.72;;;;;;;25.99;45.05;100791.06;4438802;32;20106;-69
2021/09/23 06:35:30;;;;;;;10.43;7.68;;;;;;;25.92;45.11;100797.44;4444452;32;20428;-69
2021/09/23 06:37:56;;;;;;;8.88;6.72;;;;;;;26.13;44.83;100807.13;4443354;32;20089;-69
2021/09/23 06:40:22;;;;;;;7.12;6.12;;;;;;;26.26;44.55;100812.97;4445614;32;20148;-69
2021/09/23 06:42:48;;;;;;;10.55;7.43;;;;;;;26.20;44.54;100812.28;4437084;32;20025;-68
2021/09/23 06:45:15;;;;;;;10.45;7.18;;;;;;;26.03;44.61;100797.28;4432753;32;20151;-69
2021/09/23 06:47:42;;;;;;;7.72;4.65;;;;;;;26.41;44.06;100811.16;4437005;32;20233;-69
2021/09/23 06:50:08;;;;;;;6.87;5.00;;;;;;;26.16;44.08;100818.34;4434255;32;20088;-70
2021/09/23 06:52:34;;;;;;;6.22;4.80;;;;;;;26.49;43.72;100815.00;4421287;32;20063;-70
2021/09/23 06:55:00;;;;;;;4.90;4.25;;;;;;;26.22;43.93;100809.59;4438033;32;20120;-70
2021/09/23 06:57:26;;;;;;;5.62;4.80;;;;;;;26.50;43.51;100810.78;4434012;32;20126;-70
2021/09/23 06:59:52;;;;;;;8.40;4.82;;;;;;;26.66;43.03;100803.22;4427889;32;20075;-70
2021/09/23 07:02:17;;;;;;;7.78;4.65;;;;;;;26.91;42.64;100811.19;4432271;32;20084;-70
2021/09/23 07:04:43;;;;;;;4.45;2.30;;;;;;;26.74;42.85;100812.78;4415561;32;20084;-70
2021/09/23 07:07:09;;;;;;;4.90;1.87;;;;;;;26.50;43.26;100818.62;4432339;32;20085;-70
2021/09/23 07:09:35;;;;;;;7.45;2.40;;;;;;;26.55;42.94;100798.38;4427242;32;20176;-70
2021/09/23 07:12:00;;;;;;;3.30;1.98;;;;;;;26.81;42.64;100815.81;4430989;32;20156;-70
2021/09/23 07:14:27;;;;;;;1.70;1.60;;;;;;;27.03;42.00;100814.69;4429828;32;20099;-70
2021/09/23 07:16:54;;;;;;;1.92;1.00;;;;;;;26.84;42.68;100802.38;4419564;32;20106;-70
2021/09/23 07:19:20;;;;;;;2.15;1.00;;;;;;;26.89;42.15;100824.63;4432619;32;20106;-70
2021/09/23 07:21:46;;;;;;;2.45;0.68;;;;;;;27.14;41.66;100818.12;4431516;32;20043;-70
2021/09/23 07:24:12;;;;;;;2.03;0.70;;;;;;;27.44;40.98;100838.13;4429467;32;20557;-70
2021/09/23 07:26:40;;;;;;;3.05;1.00;;;;;;;27.13;41.37;100830.25;4433331;32;20104;-70
2021/09/23 07:29:07;;;;;;;2.00;0.90;;;;;;;27.60;40.56;100833.34;4435979;32;20470;-70
2021/09/23 07:31:33;;;;;;;2.33;0.60;;;;;;;27.72;40.41;100835.47;4430757;32;20061;-70
2021/09/23 07:33:59;;;;;;;2.95;1.23;;;;;;;26.88;41.53;100837.50;4428861;32;20998;-70
2021/09/23 07:36:25;;;;;;;1.05;0.60;;;;;;;27.36;40.76;100848.75;4428563;32;20618;-70
2021/09/23 07:38:51;;;;;;;2.30;0.80;;;;;;;27.31;40.64;100841.00;4428022;32;20145;-70
2021/09/23 07:41:16;;;;;;;4.60;0.60;;;;;;;27.40;40.48;100834.78;4432061;32;20101;-70
2021/09/23 07:43:42;;;;;;;1.33;0.70;;;;;;;27.18;40.34;100829.34;4434642;32;20304;-71
2021/09/23 07:46:08;;;;;;;3.28;1.00;;;;;;;26.83;40.83;100827.59;4432930;32;20137;-69
2021/09/23 07:48:33;;;;;;;6.05;1.10;;;;;;;26.59;40.87;100832.69;4435571;32;20551;-69
2021/09/23 07:50:59;;;;;;;5.45;1.15;;;;;;;26.74;40.59;100830.91;4432286;32;20399;-69
2021/09/23 07:53:25;;;;;;;4.68;1.15;;;;;;;26.92;40.06;100852.41;4432884;32;20053;-68
2021/09/23 07:55:52;;;;;;;5.45;1.33;;;;;;;26.90;40.00;100835.62;4433448;32;20525;-68
2021/09/23 07:58:18;;;;;;;4.40;1.27;;;;;;;26.90;40.21;100852.94;4435553;32;20430;-69
2021/09/23 08:00:44;;;;;;;5.80;2.03;;;;;;;26.45;40.61;100836.84;4437931;32;20072;-69
2021/09/23 08:03:10;;;;;;;3.58;1.40;;;;;;;26.82;39.91;100831.03;4433284;32;20045;-69
2021/09/23 08:05:36;;;;;;;10.30;1.30;;;;;;;27.10;39.17;100834.25;4435488;32;20103;-69
2021/09/23 08:08:02;;;;;;;5.37;1.30;;;;;;;26.55;39.97;100826.44;4435768;32;20080;-69
2021/09/23 08:10:28;;;;;;;5.80;1.23;;;;;;;26.36;40.24;100825.69;4432797;32;20367;-69
2021/09/23 08:12:55;;;;;;;6.40;0.90;;;;;;;26.03;40.51;100826.94;4433604;32;21048;-69
2021/09/23 08:15:20;;;;;;;4.65;0.90;;;;;;;26.16;40.34;100826.22;4432850;32;20634;-69
2021/09/23 08:17:46;;;;;;;4.68;0.90;;;;;;;26.68;39.52;100829.41;4436604;32;20356;-68
2021/09/23 08:20:12;;;;;;;3.60;1.10;;;;;;;27.37;38.22;100829.31;4433763;32;20428;-69
2021/09/23 08:22:39;;;;;;;3.62;1.20;;;;;;;27.45;37.60;100833.87;4431178;32;20041;-69
2021/09/23 08:25:06;;;;;;;4.28;1.02;;;;;;;27.99;37.05;100842.03;4432158;32;20131;-69
2021/09/23 08:27:32;;;;;;;3.90;0.82;;;;;;;27.66;37.10;100839.78;4436076;32;20037;-68
2021/09/23 08:29:58;;;;;;;4.10;0.95;;;;;;;27.90;36.72;100825.12;4436696;32;20631;-69
2021/09/23 08:32:24;;;;;;;1.90;1.02;;;;;;;28.52;35.68;100835.62;4434141;32;20477;-69
2021/09/23 08:34:51;;;;;;;5.30;0.90;;;;;;;28.54;35.13;100832.16;4434362;32;21151;-69
2021/09/23 08:37:17;;;;;;;2.97;0.70;;;;;;;29.32;33.65;100833.94;4436433;32;20103;-69
2021/09/23 08:39:44;;;;;;;5.20;1.00;;;;;;;28.75;34.21;100848.22;4432666;32;20041;-70
2021/09/23 08:42:10;;;;;;;4.20;0.77;;;;;;;29.21;33.33;100828.41;4434464;32;20655;-68
2021/09/23 08:44:36;;;;;;;3.03;0.90;;;;;;;29.51;32.65;100843.16;4432835;32;20132;-69
2021/09/23 08:47:03;;;;;;;3.35;0.90;;;;;;;29.90;32.16;100848.66;4433705;32;20488;-69
2021/09/23 08:49:29;;;;;;;7.32;0.82;;;;;;;30.06;31.61;100861.94;4434435;32;20076;-69
2021/09/23 08:51:55;;;;;;;3.22;0.80;;;;;;;28.36;34.28;100848.34;4435561;32;20418;-69
2021/09/23 08:54:21;;;;;;;4.40;0.95;;;;;;;28.78;32.98;100844.19;4433041;32;20168;-68
2021/09/23 08:56:48;;;;;;;4.97;0.70;;;;;;;28.46;33.65;100858.13;4435133;32;20101;-69
2021/09/23 08:59:14;;;;;;;5.68;0.80;;;;;;;28.73;33.09;100848.03;4435921;32;20137;-69
2021/09/23 09:01:49;;;;;;;2.87;0.60;;;;;;;29.70;31.77;100870.56;4433753;32;20060;-68
2021/09/23 09:04:16;;;;;;;6.20;0.80;;;;;;;29.43;31.93;100866.31;4434952;32;20081;-68
2021/09/23 09:06:58;;;;;;;3.92;0.70;;;;;;;29.36;32.14;100858.28;4436054;32;20153;-68
2021/09/23 09:09:24;;;;;;;3.05;0.80;;;;;;;29.53;31.97;100843.34;4435505;32;20073;-68
2021/09/23 09:11:52;;;;;;;3.47;0.70;;;;;;;30.16;30.93;100855.00;4435356;32;20520;-68
2021/09/23 09:14:23;;;;;;;4.75;0.98;;;;;;;29.16;32.67;100867.00;4433950;32;20134;-69
2021/09/23 09:16:55;;;;;;;3.67;1.12;;;;;;;29.40;31.70;100855.84;4436699;32;20120;-69
2021/09/23 09:19:20;;;;;;;3.58;1.05;;;;;;;29.64;31.42;100875.78;4431798;32;20096;-69
2021/09/23 09:21:47;;;;;;;5.90;0.98;;;;;;;30.05;30.51;100864.03;4418388;32;20088;-69
2021/09/23 09:24:17;;;;;;;3.22;0.80;;;;;;;30.28;29.93;100872.91;4429649;32;21459;-68
2021/09/23 09:26:43;;;;;;;5.75;0.62;;;;;;;29.63;30.69;100887.94;4435111;32;20419;-69
2021/09/23 09:29:14;;;;;;;3.33;0.73;;;;;;;28.96;31.46;100897.53;4435873;32;20197;-69
2021/09/23 09:31:47;;;;;;;8.93;1.83;;;;;;;29.53;30.89;100875.25;4430080;32;20135;-69
2021/09/23 09:34:14;;;;;;;8.32;1.08;;;;;;;29.96;30.38;100870.38;4428665;32;20060;-69
2021/09/23 09:36:49;;;;;;;3.97;0.98;;;;;;;30.06;30.06;100879.34;4433517;32;21223;-69
2021/09/23 09:39:18;;;;;;;2.85;0.73;;;;;;;31.00;28.96;100880.13;4434508;32;20076;-69
2021/09/23 09:41:47;;;;;;;6.62;1.20;;;;;;;31.46;28.15;100875.94;4431033;32;20141;-69
2021/09/23 09:44:14;;;;;;;4.12;0.73;;;;;;;31.97;27.52;100888.13;4431705;32;20810;-70
2021/09/23 09:46:49;;;;;;;4.62;0.80;;;;;;;30.99;28.36;100893.12;4436151;32;20077;-70
2021/09/23 09:49:16;;;;;;;2.87;0.85;;;;;;;30.45;29.06;100885.56;4433299;32;20650;-70
2021/09/23 09:51:47;;;;;;;5.35;0.77;;;;;;;30.35;29.14;100878.75;4429462;32;20512;-70
2021/09/23 09:54:15;;;;;;;3.60;0.93;;;;;;;30.43;28.43;100890.41;4433172;32;20042;-70
2021/09/23 09:56:43;;;;;;;7.68;1.08;;;;;;;29.59;28.96;100888.28;4431482;32;20153;-70
2021/09/23 09:59:18;;;;;;;4.82;0.77;;;;;;;29.56;29.33;100880.72;4432995;32;20085;-70
2021/09/23 10:01:47;;;;;;;4.45;1.10;;;;;;;29.94;28.80;100886.81;4432481;32;20080;-70
2021/09/23 10:04:14;;;;;;;3.85;0.95;;;;;;;29.10;29.99;100875.06;4435635;32;20081;-70
2021/09/23 10:06:42;;;;;;;2.47;0.95;;;;;;;29.01;30.12;100859.72;4432228;32;20076;-70
2021/09/23 10:09:10;;;;;;;4.07;0.90;;;;;;;29.53;29.65;100870.25;4433793;32;20077;-70
2021/09/23 10:11:40;;;;;;;4.70;1.10;;;;;;;30.08;28.57;100870.81;4433999;32;20029;-70
2021/09/23 10:14:06;;;;;;;7.82;1.23;;;;;;;29.73;28.76;100897.69;4431942;32;20096;-70
2021/09/23 10:16:32;;;;;;;2.58;0.70;;;;;;;29.33;29.49;100882.66;4435010;32;20171;-70
2021/09/23 10:18:58;;;;;;;5.28;0.62;;;;;;;29.54;29.41;100897.87;4433664;32;20072;-70
2021/09/23 10:21:25;;;;;;;9.80;1.60;;;;;;;30.15;28.66;100897.00;4433397;32;20820;-70
2021/09/23 10:23:53;;;;;;;4.80;1.00;;;;;;;29.48;29.30;100905.94;4429549;32;20578;-69
2021/09/23 10:26:24;;;;;;;6.25;1.00;;;;;;;29.41;29.14;100897.97;4430960;32;20168;-69
2021/09/23 10:28:51;;;;;;;8.43;1.15;;;;;;;28.69;30.25;100902.59;4433033;32;20147;-70
2021/09/23 10:31:19;;;;;;;4.18;1.10;;;;;;;28.61;29.50;100907.53;4419948;32;21561;-68
2021/09/23 10:33:46;;;;;;;7.37;1.62;;;;;;;27.98;30.53;100902.00;4432477;32;20100;-70
2021/09/23 10:36:13;;;;;;;5.65;1.40;;;;;;;28.17;29.93;100905.59;4433953;32;20093;-70
2021/09/23 10:38:41;;;;;;;6.57;1.45;;;;;;;27.26;31.29;100931.44;4434462;32;20104;-71
2021/09/23 10:41:07;;;;;;;6.10;1.00;;;;;;;27.45;31.39;100937.19;4432213;32;20073;-70
2021/09/23 10:43:33;;;;;;;5.75;1.17;;;;;;;27.49;31.47;100935.53;4434373;32;20146;-70
2021/09/23 10:46:00;;;;;;;6.32;1.52;;;;;;;27.87;30.79;100945.63;4431506;32;20432;-70
2021/09/23 10:48:28;;;;;;;8.55;1.58;;;;;;;28.23;30.46;100943.88;4432833;32;20129;-70
2021/09/23 10:50:54;;;;;;;7.78;1.30;;;;;;;28.31;30.30;100915.00;4434756;32;21168;-69
2021/09/23 10:53:20;;;;;;;6.50;1.65;;;;;;;28.08;30.64;100958.13;4435368;32;20498;-69
2021/09/23 10:55:46;;;;;;;11.43;1.48;;;;;;;28.51;30.17;100934.63;4431196;32;20077;-69
2021/09/23 10:58:13;;;;;;;6.35;1.67;;;;;;;28.86;29.83;100929.09;4435499;32;20516;-70
2021/09/23 11:00:39;;;;;;;5.03;1.00;;;;;;;28.97;29.24;100937.50;4431414;32;20490;-67
2021/09/23 11:03:08;;;;;;;6.43;1.62;;;;;;;29.19;28.94;100930.44;4428050;32;20063;-67
2021/09/23 11:05:35;;;;;;;10.35;1.25;;;;;;;28.86;29.78;100940.66;4429388;32;20073;-70
2021/09/23 11:08:12;;;;;;;6.93;1.67;;;;;;;28.72;29.89;100939.13;4428368;32;20339;-69
2021/09/23 11:10:41;;;;;;;11.10;1.92;;;;;;;28.76;30.21;100954.06;4430184;32;20068;-67
2021/09/23 11:13:09;;;;;;;9.68;1.50;;;;;;;28.41;30.93;100956.66;4429700;32;20096;-71
2021/09/23 11:15:37;;;;;;;5.97;1.40;;;;;;;28.31;30.83;100970.81;4431987;32;20065;-71
2021/09/23 11:18:04;;;;;;;5.00;1.27;;;;;;;27.97;31.49;100961.22;4432487;32;20257;-71
2021/09/23 11:20:32;;;;;;;8.18;1.83;;;;;;;27.96;31.68;100959.66;4427835;32;20080;-71